createdAt,value
2022-11-09T00:00:11.275Z,16.85
2022-11-09T00:02:42.954Z,17.22
2022-11-09T00:05:10.970Z,16.81
2022-11-09T00:07:37.754Z,16.94
2022-11-09T00:10:05.366Z,17.23
2022-11-09T00:12:32.096Z,17.15
2022-11-09T00:14:58.972Z,17.10
2022-11-09T00:17:26.078Z,17.29
2022-11-09T00:19:52.909Z,16.92
2022-11-09T00:22:19.925Z,16.75
2022-11-09T00:24:48.085Z,17.11
2022-11-09T00:27:17.616Z,17.53
2022-11-09T00:29:44.793Z,16.87
2022-11-09T00:32:11.796Z,17.08
2022-11-09T00:34:39.447Z,16.70
2022-11-09T00:37:06.508Z,16.55
2022-11-09T00:39:33.737Z,16.55
2022-11-09T00:42:00.417Z,16.55
2022-11-09T00:44:30.134Z,16.60
2022-11-09T00:46:56.918Z,16.70
2022-11-09T00:49:23.730Z,16.52
2022-11-09T00:51:50.639Z,16.89
2022-11-09T00:54:18.665Z,17.04
2022-11-09T00:56:45.893Z,16.62
2022-11-09T00:59:13.322Z,16.57
2022-11-09T01:01:40.280Z,16.85
2022-11-09T01:04:07.846Z,16.58
2022-11-09T01:06:34.957Z,16.39
2022-11-09T01:09:02.978Z,16.22
2022-11-09T01:11:29.892Z,17.03
2022-11-09T01:14:02.779Z,16.26
2022-11-09T01:16:30.061Z,16.58
2022-11-09T01:18:57.999Z,16.37
2022-11-09T01:21:26.087Z,16.57
2022-11-09T01:23:52.936Z,16.33
2022-11-09T01:26:19.962Z,16.31
2022-11-09T01:28:46.946Z,16.20
2022-11-09T01:31:16.355Z,16.45
2022-11-09T01:33:43.993Z,16.16
2022-11-09T01:36:13.205Z,16.66
2022-11-09T01:38:40.546Z,16.79
2022-11-09T01:41:12.387Z,16.38
2022-11-09T01:43:39.368Z,16.45
2022-11-09T01:46:16.424Z,16.76
2022-11-09T01:48:50.413Z,16.27
2022-11-09T01:51:34.809Z,16.78
2022-11-09T01:54:13.425Z,16.77
2022-11-09T01:56:40.476Z,16.55
2022-11-09T01:59:16.020Z,16.18
2022-11-09T02:01:43.286Z,16.27
2022-11-09T02:04:13.825Z,16.57
2022-11-09T02:06:40.915Z,16.54
2022-11-09T02:09:37.937Z,16.49
2022-11-09T02:12:05.879Z,16.53
2022-11-09T02:14:33.616Z,16.24
2022-11-09T02:17:00.463Z,16.38
2022-11-09T02:19:27.523Z,16.25
2022-11-09T02:21:54.466Z,16.56
2022-11-09T02:24:25.521Z,16.74
2022-11-09T02:26:52.879Z,16.29
2022-11-09T02:29:33.027Z,16.53
2022-11-09T02:32:03.987Z,16.22
2022-11-09T02:34:31.738Z,16.61
2022-11-09T02:36:58.699Z,16.29
2022-11-09T02:39:26.749Z,16.54
2022-11-09T02:41:58.470Z,16.78
2022-11-09T02:44:30.909Z,16.20
2022-11-09T02:46:57.725Z,16.22
2022-11-09T02:49:26.779Z,16.48
2022-11-09T02:51:53.634Z,16.16
2022-11-09T02:54:20.440Z,16.42
2022-11-09T02:56:48.851Z,16.21
2022-11-09T02:59:17.111Z,16.10
2022-11-09T03:01:44.086Z,16.36
2022-11-09T03:04:12.051Z,16.25
2022-11-09T03:06:38.860Z,16.09
2022-11-09T03:09:13.855Z,16.15
2022-11-09T03:11:42.006Z,15.97
2022-11-09T03:14:11.452Z,16.33
2022-11-09T03:16:47.743Z,16.38
2022-11-09T03:19:17.116Z,16.25
2022-11-09T03:21:45.556Z,15.82
2022-11-09T03:24:13.434Z,15.89
2022-11-09T03:26:41.219Z,16.23
2022-11-09T03:29:08.182Z,16.15
2022-11-09T03:31:35.794Z,16.00
2022-11-09T03:34:05.730Z,16.22
2022-11-09T03:36:35.391Z,16.21
2022-11-09T03:39:02.169Z,16.07
2022-11-09T03:41:29.134Z,16.41
2022-11-09T03:43:55.920Z,16.11
2022-11-09T03:46:23.109Z,16.27
2022-11-09T03:48:50.317Z,16.26
2022-11-09T03:51:17.284Z,16.64
2022-11-09T03:53:44.380Z,16.82
2022-11-09T03:56:11.345Z,16.95
2022-11-09T03:58:38.166Z,16.41
2022-11-09T04:01:05.065Z,16.67
2022-11-09T04:03:31.949Z,16.53
2022-11-09T04:05:59.406Z,16.18
2022-11-09T04:08:26.091Z,16.50
2022-11-09T04:10:52.801Z,15.80
2022-11-09T04:13:19.768Z,16.16
2022-11-09T04:15:46.752Z,16.15
2022-11-09T04:18:15.105Z,16.24
2022-11-09T04:20:42.018Z,15.65
2022-11-09T04:23:11.589Z,15.81
2022-11-09T04:25:40.492Z,16.04
2022-11-09T04:28:09.809Z,16.35
2022-11-09T04:30:37.450Z,16.00
2022-11-09T04:33:05.038Z,15.81
2022-11-09T04:35:33.478Z,15.95
2022-11-09T04:38:04.940Z,15.92
2022-11-09T04:40:33.543Z,15.93
2022-11-09T04:43:03.087Z,15.92
2022-11-09T04:46:08.554Z,16.11
2022-11-09T04:48:43.499Z,16.30
2022-11-09T04:51:13.559Z,15.83
2022-11-09T04:53:40.445Z,16.07
2022-11-09T04:56:08.002Z,15.94
2022-11-09T04:58:34.971Z,16.14
2022-11-09T05:01:06.592Z,16.02
2022-11-09T05:03:33.798Z,15.98
2022-11-09T05:06:00.654Z,16.22
2022-11-09T05:08:27.877Z,16.03
2022-11-09T05:10:58.476Z,15.60
2022-11-09T05:13:25.605Z,15.54
2022-11-09T05:15:52.514Z,15.48
2022-11-09T05:18:19.245Z,15.23
2022-11-09T05:20:45.949Z,15.79
2022-11-09T05:23:31.321Z,15.58
2022-11-09T05:25:58.133Z,15.71
2022-11-09T05:28:24.814Z,15.29
2022-11-09T05:30:51.760Z,15.53
2022-11-09T05:33:18.797Z,16.05
2022-11-09T05:35:45.918Z,15.60
2022-11-09T05:38:13.055Z,15.82
2022-11-09T05:40:39.832Z,15.59
2022-11-09T05:43:06.628Z,15.71
2022-11-09T05:45:42.601Z,15.83
2022-11-09T05:48:11.683Z,15.89
2022-11-09T05:50:39.252Z,15.75
2022-11-09T05:53:24.101Z,15.48
2022-11-09T05:55:51.196Z,15.59
2022-11-09T05:58:18.230Z,15.51
2022-11-09T06:00:45.013Z,15.41
2022-11-09T06:03:11.946Z,15.43
2022-11-09T06:05:40.381Z,15.48
2022-11-09T06:08:09.250Z,15.55
2022-11-09T06:10:36.009Z,15.73
2022-11-09T06:13:03.365Z,15.61
2022-11-09T06:15:30.083Z,15.46
2022-11-09T06:17:58.045Z,15.35
2022-11-09T06:20:26.881Z,15.23
2022-11-09T06:23:02.793Z,15.45
2022-11-09T06:25:31.875Z,15.32
2022-11-09T06:27:59.589Z,14.92
2022-11-09T06:30:26.426Z,15.25
2022-11-09T06:32:59.096Z,15.69
2022-11-09T06:35:28.923Z,15.65
2022-11-09T06:38:03.273Z,15.14
2022-11-09T06:40:30.193Z,15.23
2022-11-09T06:42:59.227Z,14.96
2022-11-09T06:45:27.702Z,15.05
2022-11-09T06:47:58.778Z,15.11
2022-11-09T06:50:55.133Z,15.25
2022-11-09T06:53:22.354Z,15.37
2022-11-09T06:55:51.110Z,15.06
2022-11-09T06:58:18.377Z,15.16
2022-11-09T07:00:45.724Z,15.25
2022-11-09T07:03:17.873Z,15.31
2022-11-09T07:05:44.951Z,15.08
2022-11-09T07:08:12.223Z,15.16
2022-11-09T07:10:39.595Z,15.50
2022-11-09T07:13:06.815Z,15.37
2022-11-09T07:15:34.681Z,15.43
2022-11-09T07:18:03.026Z,15.10
2022-11-09T07:20:29.919Z,15.72
2022-11-09T07:22:56.938Z,15.36
2022-11-09T07:25:25.038Z,15.47
2022-11-09T07:27:52.037Z,15.53
2022-11-09T07:30:18.972Z,15.50
2022-11-09T07:35:32.524Z,15.33
2022-11-09T07:38:02.463Z,15.65
2022-11-09T07:40:30.214Z,15.39
2022-11-09T07:43:01.456Z,15.79
2022-11-09T07:45:29.383Z,15.51
2022-11-09T07:47:58.378Z,15.90
2022-11-09T07:50:26.193Z,15.83
2022-11-09T07:52:52.925Z,15.77
2022-11-09T07:55:19.877Z,16.00
2022-11-09T07:57:47.374Z,16.71
2022-11-09T08:00:17.721Z,16.57
2022-11-09T08:02:49.330Z,16.65
2022-11-09T08:05:16.205Z,16.49
2022-11-09T08:07:43.427Z,16.63
2022-11-09T08:10:10.482Z,16.57
2022-11-09T08:12:38.239Z,16.06
2022-11-09T08:15:06.342Z,16.97
2022-11-09T08:17:33.119Z,18.52
2022-11-09T08:20:00.182Z,20.04
2022-11-09T08:22:26.996Z,20.12
2022-11-09T08:24:53.678Z,19.09
2022-11-09T08:27:20.324Z,18.06
2022-11-09T08:29:47.032Z,17.16
2022-11-09T08:32:13.705Z,17.25
2022-11-09T08:34:41.072Z,17.00
2022-11-09T08:37:07.847Z,16.72
2022-11-09T08:39:34.595Z,16.93
2022-11-09T08:42:01.374Z,16.42
2022-11-09T08:44:28.244Z,16.54
2022-11-09T08:46:54.943Z,16.63
2022-11-09T08:49:21.753Z,16.69
2022-11-09T08:51:48.459Z,16.21
2022-11-09T08:54:15.220Z,16.67
2022-11-09T08:56:42.215Z,16.41
2022-11-09T08:59:08.977Z,16.34
2022-11-09T09:01:35.671Z,16.36
2022-11-09T09:04:02.445Z,16.14
2022-11-09T09:06:31.236Z,16.39
2022-11-09T09:08:58.453Z,16.32
2022-11-09T09:11:25.275Z,16.25
2022-11-09T09:13:51.954Z,16.16
2022-11-09T09:16:18.915Z,16.98
2022-11-09T09:18:47.984Z,16.29
2022-11-09T09:21:14.935Z,16.52
2022-11-09T09:23:41.812Z,16.64
2022-11-09T09:26:08.522Z,16.72
2022-11-09T09:28:35.449Z,16.42
2022-11-09T09:31:02.446Z,16.58
2022-11-09T09:33:29.196Z,16.68
2022-11-09T09:35:57.726Z,16.65
2022-11-09T09:38:28.502Z,16.31
2022-11-09T09:41:00.485Z,16.43
2022-11-09T09:43:44.104Z,16.69
2022-11-09T09:46:20.648Z,16.82
2022-11-09T09:48:51.867Z,16.79
2022-11-09T09:51:38.320Z,16.73
2022-11-09T09:54:37.247Z,16.56
2022-11-09T09:57:04.512Z,16.68
2022-11-09T09:59:44.208Z,16.35
2022-11-09T10:02:25.674Z,16.67
2022-11-09T10:04:55.487Z,16.67
2022-11-09T10:07:35.438Z,16.82
2022-11-09T10:10:24.341Z,17.25
2022-11-09T10:13:30.162Z,16.54
2022-11-09T10:16:41.221Z,16.75
2022-11-09T10:19:19.897Z,16.20
2022-11-09T10:22:03.009Z,16.63
2022-11-09T10:25:20.834Z,16.96
2022-11-09T10:27:49.972Z,16.95
2022-11-09T10:30:18.780Z,16.94
2022-11-09T10:32:49.020Z,16.72
2022-11-09T10:35:17.727Z,16.81
2022-11-09T10:37:46.719Z,16.60
2022-11-09T10:40:24.214Z,16.78
2022-11-09T10:43:14.270Z,16.77
2022-11-09T10:46:05.042Z,16.84
2022-11-09T10:48:50.675Z,16.88
2022-11-09T10:51:40.380Z,16.78
2022-11-09T10:57:27.764Z,17.22
2022-11-09T11:00:19.491Z,17.31
2022-11-09T11:03:16.399Z,17.58
2022-11-09T11:06:05.430Z,17.04
2022-11-09T11:09:10.420Z,17.03
2022-11-09T11:12:15.541Z,16.97
2022-11-09T11:15:01.106Z,16.75
2022-11-09T11:17:46.500Z,16.60
2022-11-09T11:20:32.943Z,16.31
2022-11-09T11:23:21.244Z,16.36
2022-11-09T11:26:27.143Z,16.45
2022-11-09T11:29:24.499Z,16.53
2022-11-09T11:32:13.801Z,16.42
2022-11-09T11:35:01.084Z,16.57
2022-11-09T11:37:57.177Z,16.71
2022-11-09T11:41:06.233Z,16.78
2022-11-09T11:44:29.526Z,16.43
2022-11-09T11:47:19.069Z,17.31
2022-11-09T11:50:25.372Z,17.20
2022-11-09T11:53:18.556Z,16.07
2022-11-09T11:56:19.981Z,16.51
2022-11-09T11:59:43.698Z,16.47
2022-11-09T12:03:06.561Z,16.65
2022-11-09T12:06:10.306Z,16.76
2022-11-09T12:09:28.898Z,16.46
2022-11-09T12:12:50.020Z,16.47
2022-11-09T12:15:55.087Z,16.95
2022-11-09T12:18:48.599Z,16.80
2022-11-09T12:22:05.697Z,17.09
2022-11-09T12:25:03.102Z,16.20
2022-11-09T12:28:05.139Z,16.55
2022-11-09T12:31:13.781Z,17.03
2022-11-09T12:34:07.599Z,17.18
2022-11-09T12:36:53.346Z,16.38
2022-11-09T12:39:53.085Z,16.81
2022-11-09T12:42:57.056Z,16.09
2022-11-09T12:45:42.716Z,16.13
2022-11-09T12:48:38.459Z,16.32
2022-11-09T12:51:23.936Z,16.17
2022-11-09T12:54:12.476Z,16.42
2022-11-09T12:57:07.204Z,16.89
2022-11-09T12:59:54.563Z,16.08
2022-11-09T13:02:55.227Z,15.64
2022-11-09T13:05:40.757Z,15.92
2022-11-09T13:08:29.416Z,16.04
2022-11-09T13:11:17.873Z,16.34
2022-11-09T13:14:30.225Z,15.87
2022-11-09T13:17:24.870Z,15.99
2022-11-09T13:24:00.184Z,15.75
2022-11-09T13:26:46.238Z,16.24
2022-11-09T13:29:40.595Z,16.60
2022-11-09T13:33:07.838Z,15.77
2022-11-09T13:35:53.268Z,15.82
2022-11-09T13:38:38.797Z,16.06
2022-11-09T13:41:43.322Z,15.97
2022-11-09T13:44:32.771Z,16.48
2022-11-09T13:47:22.208Z,16.83
2022-11-09T13:50:28.635Z,16.24
2022-11-09T13:53:53.184Z,16.53
2022-11-09T13:56:40.209Z,16.86
2022-11-09T13:59:28.156Z,16.52
2022-11-09T14:02:22.307Z,16.77
2022-11-09T14:05:33.051Z,16.76
2022-11-09T14:08:28.472Z,16.54
2022-11-09T14:11:23.234Z,16.63
2022-11-09T14:14:26.557Z,16.86
2022-11-09T14:17:15.247Z,16.27
2022-11-09T14:20:42.360Z,16.15
2022-11-09T14:23:32.265Z,16.51
2022-11-09T14:26:22.968Z,16.21
2022-11-09T14:29:22.350Z,16.11
2022-11-09T14:32:26.259Z,16.25
2022-11-09T14:35:14.838Z,16.12
2022-11-09T14:38:02.849Z,15.42
2022-11-09T14:40:49.693Z,15.55
2022-11-09T14:43:43.167Z,15.46
2022-11-09T14:46:30.533Z,15.51
2022-11-09T14:49:16.178Z,15.42
2022-11-09T14:52:02.438Z,15.49
2022-11-09T14:54:48.327Z,15.21
2022-11-09T14:57:33.700Z,16.06
2022-11-09T15:00:30.752Z,15.88
2022-11-09T15:03:28.101Z,15.67
2022-11-09T15:06:15.880Z,15.81
2022-11-09T15:09:05.145Z,15.60
2022-11-09T15:11:51.341Z,15.91
2022-11-09T15:14:36.588Z,15.76
2022-11-09T15:17:30.292Z,15.53
2022-11-09T15:20:16.357Z,15.89
2022-11-09T15:23:36.475Z,16.14
2022-11-09T15:26:35.763Z,15.97
2022-11-09T15:29:40.198Z,15.72
2022-11-09T15:32:26.487Z,15.49
2022-11-09T15:35:17.096Z,15.66
2022-11-09T15:38:02.942Z,15.59
2022-11-09T15:40:48.219Z,15.71
2022-11-09T15:43:34.156Z,15.40
2022-11-09T15:46:23.462Z,15.80
2022-11-09T15:49:29.086Z,15.32
2022-11-09T15:52:14.358Z,15.94
2022-11-09T15:54:59.971Z,15.90
2022-11-09T15:57:45.354Z,16.10
2022-11-09T16:00:31.092Z,15.81
2022-11-09T16:03:18.480Z,15.67
2022-11-09T16:06:10.346Z,16.16
2022-11-09T16:08:55.858Z,15.85
2022-11-09T16:11:41.580Z,15.98
2022-11-09T16:14:34.091Z,15.81
2022-11-09T16:17:19.712Z,15.34
2022-11-09T16:20:05.761Z,15.17
2022-11-09T16:22:51.119Z,15.09
2022-11-09T16:25:37.600Z,15.47
2022-11-09T16:28:24.012Z,15.23
2022-11-09T16:31:10.949Z,15.46
2022-11-09T16:33:56.433Z,15.53
2022-11-09T16:36:48.765Z,15.55
2022-11-09T16:39:36.394Z,15.30
2022-11-09T16:42:21.771Z,15.66
2022-11-09T16:45:11.142Z,15.32
2022-11-09T16:47:59.742Z,15.59
2022-11-09T16:50:45.184Z,15.34
2022-11-09T16:53:30.889Z,15.28
2022-11-09T16:56:20.107Z,14.79
2022-11-09T16:59:05.440Z,15.08
2022-11-09T17:02:00.478Z,14.86
2022-11-09T17:04:45.804Z,15.54
2022-11-09T17:07:32.160Z,14.85
2022-11-09T17:10:17.547Z,15.04
2022-11-09T17:13:03.051Z,14.88
2022-11-09T17:15:51.835Z,14.53
2022-11-09T17:18:40.672Z,14.76
2022-11-09T17:21:32.974Z,14.89
2022-11-09T17:24:18.359Z,14.68
2022-11-09T17:27:04.150Z,14.71
2022-11-09T17:29:49.589Z,14.80
2022-11-09T17:32:38.030Z,14.42
2022-11-09T17:35:24.815Z,14.50
2022-11-09T17:38:09.948Z,14.30
2022-11-09T17:41:08.701Z,14.01
2022-11-09T17:43:54.096Z,14.37
2022-11-09T17:46:40.291Z,14.37
2022-11-09T17:49:25.836Z,14.32
2022-11-09T17:52:12.039Z,14.39
2022-11-09T17:54:57.734Z,14.93
2022-11-09T17:57:43.388Z,14.68
2022-11-09T18:00:28.550Z,14.93
2022-11-09T18:03:15.446Z,14.63
2022-11-09T18:06:01.135Z,14.80
2022-11-09T18:08:58.322Z,14.80
2022-11-09T18:11:52.383Z,14.73
2022-11-09T18:14:37.602Z,14.67
2022-11-09T18:17:23.227Z,14.23
2022-11-09T18:20:12.585Z,14.80
2022-11-09T18:22:57.890Z,15.25
2022-11-09T18:25:43.409Z,15.36
2022-11-09T18:28:28.772Z,15.18
2022-11-09T18:31:14.519Z,14.96
2022-11-09T18:34:00.324Z,14.80
2022-11-09T18:36:45.822Z,15.08
2022-11-09T18:39:31.305Z,14.77
2022-11-09T18:42:16.658Z,14.83
2022-11-09T18:45:02.042Z,14.84
2022-11-09T18:47:50.495Z,14.63
2022-11-09T18:50:37.552Z,14.74
2022-11-09T18:53:26.014Z,14.56
2022-11-09T18:56:18.605Z,14.52
2022-11-09T18:59:03.897Z,15.01
2022-11-09T19:01:49.264Z,14.88
2022-11-09T19:04:35.458Z,14.62
2022-11-09T19:07:20.791Z,14.64
2022-11-09T19:10:06.731Z,14.80
2022-11-09T19:12:52.203Z,14.99
2022-11-09T19:15:43.411Z,15.00
2022-11-09T19:18:28.523Z,14.64
2022-11-09T19:21:28.829Z,14.70
2022-11-09T19:24:17.440Z,14.76
2022-11-09T19:27:02.550Z,14.71
2022-11-09T19:29:47.927Z,14.86
2022-11-09T19:32:33.510Z,15.09
2022-11-09T19:35:24.878Z,14.72
2022-11-09T19:38:12.024Z,14.56
2022-11-09T19:40:57.507Z,14.41
2022-11-09T19:43:42.795Z,14.37
2022-11-09T19:46:33.204Z,14.84
2022-11-09T19:49:18.629Z,14.25
2022-11-09T19:52:04.087Z,14.46
2022-11-09T19:54:49.481Z,14.36
2022-11-09T19:57:34.576Z,13.91
2022-11-09T20:00:20.197Z,14.57
2022-11-09T20:03:05.928Z,14.31
2022-11-09T20:05:54.373Z,13.87
2022-11-09T20:08:40.952Z,13.82
2022-11-09T20:11:46.377Z,13.91
2022-11-09T20:14:31.844Z,14.07
2022-11-09T20:17:17.064Z,13.70
2022-11-09T20:20:02.822Z,14.21
2022-11-09T20:22:48.051Z,14.04
2022-11-09T20:25:33.505Z,14.23
2022-11-09T20:28:19.361Z,14.29
2022-11-09T20:31:10.328Z,14.16
2022-11-09T20:33:59.998Z,14.23
2022-11-09T20:36:46.065Z,14.40
2022-11-09T20:39:31.523Z,14.44
2022-11-09T20:42:16.450Z,14.28
2022-11-09T20:45:06.277Z,14.58
2022-11-09T20:48:10.594Z,14.51
2022-11-09T20:51:03.562Z,13.99
2022-11-09T20:53:50.233Z,14.01
2022-11-09T20:56:37.368Z,14.03
2022-11-09T20:59:22.351Z,14.13
2022-11-09T21:02:13.183Z,14.36
2022-11-09T21:04:58.535Z,14.00
2022-11-09T21:07:46.801Z,14.38
2022-11-09T21:10:32.060Z,14.01
2022-11-09T21:13:17.356Z,13.95
2022-11-09T21:16:13.702Z,14.07
2022-11-09T21:18:59.245Z,14.38
2022-11-09T21:21:44.760Z,14.37
2022-11-09T21:24:48.737Z,14.16
2022-11-09T21:27:52.832Z,13.92
2022-11-09T21:30:38.476Z,14.32
2022-11-09T21:33:23.718Z,14.11
2022-11-09T21:36:11.142Z,13.85
2022-11-09T21:38:56.214Z,14.35
2022-11-09T21:41:42.049Z,14.27
2022-11-09T21:44:31.639Z,14.17
2022-11-09T21:47:17.635Z,14.01
2022-11-09T21:50:05.890Z,14.31
2022-11-09T21:52:55.916Z,14.48
2022-11-09T21:55:41.490Z,13.81
2022-11-09T21:58:26.949Z,14.10
2022-11-09T22:01:12.401Z,14.21
2022-11-09T22:03:59.076Z,14.31
2022-11-09T22:06:44.740Z,14.11
2022-11-09T22:09:50.394Z,14.13
2022-11-09T22:12:56.575Z,13.73
2022-11-09T22:16:00.884Z,14.17
2022-11-09T22:19:04.895Z,13.79
2022-11-09T22:21:50.374Z,13.95
2022-11-09T22:24:37.830Z,13.91
2022-11-09T22:27:23.466Z,14.27
2022-11-09T22:30:09.410Z,14.09
2022-11-09T22:32:54.493Z,13.73
2022-11-09T22:35:40.030Z,13.72
2022-11-09T22:38:26.739Z,14.06
2022-11-09T22:41:20.717Z,13.67
2022-11-09T22:44:12.525Z,13.76
2022-11-09T22:46:58.619Z,13.92
2022-11-09T22:49:44.439Z,13.80
2022-11-09T22:52:30.689Z,13.55
2022-11-09T22:55:16.191Z,13.91
2022-11-09T22:58:01.637Z,13.92
2022-11-09T23:00:47.695Z,13.68
2022-11-09T23:03:32.715Z,13.96
2022-11-09T23:06:20.877Z,14.04
2022-11-09T23:09:06.508Z,14.24
2022-11-09T23:11:51.853Z,14.35
2022-11-09T23:14:55.776Z,14.23
2022-11-09T23:17:59.733Z,13.95
2022-11-09T23:20:45.136Z,13.78
2022-11-09T23:23:30.358Z,13.90
2022-11-09T23:26:16.424Z,13.86
2022-11-09T23:29:01.851Z,13.84
2022-11-09T23:31:47.118Z,13.94
2022-11-09T23:34:32.555Z,14.03
2022-11-09T23:37:17.869Z,13.82
2022-11-09T23:40:04.297Z,14.05
2022-11-09T23:42:49.650Z,13.81
2022-11-09T23:45:35.941Z,14.18
2022-11-09T23:48:21.196Z,13.90
2022-11-09T23:51:07.168Z,13.86
2022-11-09T23:53:54.505Z,14.06
2022-11-09T23:56:40.357Z,13.88
2022-11-09T23:59:29.089Z,13.67
